createdAt,value
2022-07-25T00:01:31.516Z,100992.34
2022-07-25T00:07:03.254Z,100989.97
2022-07-25T00:12:34.953Z,100968.28
2022-07-25T00:18:11.017Z,100970.19
2022-07-25T00:23:43.602Z,100977.47
2022-07-25T00:29:15.097Z,100984.91
2022-07-25T00:34:48.495Z,100979.47
2022-07-25T00:39:55.183Z,100979.91
2022-07-25T00:45:26.961Z,100978.25
2022-07-25T00:51:00.773Z,100983.16
2022-07-25T00:56:59.168Z,100979.09
2022-07-25T01:02:33.651Z,100968.94
2022-07-25T01:08:07.438Z,100959.00
2022-07-25T01:14:09.688Z,100961.13
2022-07-25T01:19:21.108Z,100966.03
2022-07-25T01:25:01.008Z,100967.38
2022-07-25T01:30:16.686Z,100968.13
2022-07-25T01:35:49.375Z,100968.34
2022-07-25T01:41:22.942Z,100975.13
2022-07-25T01:46:36.777Z,100974.50
2022-07-25T01:51:43.870Z,100972.59
2022-07-25T01:57:17.699Z,100955.84
2022-07-25T02:02:25.292Z,100952.13
2022-07-25T02:07:57.469Z,100948.28
2022-07-25T02:13:05.811Z,100943.53
2022-07-25T02:18:57.280Z,100944.75
2022-07-25T02:24:04.769Z,100959.88
2022-07-25T02:29:14.934Z,100953.78
2022-07-25T02:34:47.119Z,100960.22
2022-07-25T02:40:19.008Z,100964.22
2022-07-25T02:45:27.611Z,100959.06
2022-07-25T02:50:34.868Z,100963.22
2022-07-25T02:55:42.240Z,100955.25
2022-07-25T03:01:16.118Z,100957.88
2022-07-25T03:06:48.391Z,100961.44
2022-07-25T03:12:20.739Z,100958.66
2022-07-25T03:17:53.753Z,100956.28
2022-07-25T03:23:27.589Z,100947.84
2022-07-25T03:28:59.627Z,100951.09
2022-07-25T03:34:08.670Z,100948.31
2022-07-25T03:39:16.285Z,100959.66
2022-07-25T03:44:27.014Z,100955.50
2022-07-25T03:50:01.851Z,100962.19
2022-07-25T03:55:35.140Z,100960.56
2022-07-25T04:01:07.781Z,100963.75
2022-07-25T04:06:45.163Z,100956.34
2022-07-25T04:11:56.048Z,100970.00
2022-07-25T04:17:06.699Z,100970.09
2022-07-25T04:22:44.807Z,100959.34
2022-07-25T04:28:18.585Z,100962.03
2022-07-25T04:33:31.114Z,100968.50
2022-07-25T04:39:04.019Z,100969.59
2022-07-25T04:44:35.478Z,100961.72
2022-07-25T04:50:08.547Z,100965.69
2022-07-25T04:55:21.819Z,100955.06
2022-07-25T05:00:53.727Z,100964.19
2022-07-25T05:06:25.375Z,100957.41
2022-07-25T05:11:58.775Z,100944.44
2022-07-25T05:17:05.952Z,100945.34
2022-07-25T05:22:17.186Z,100924.28
2022-07-25T05:27:55.112Z,100914.38
2022-07-25T05:33:08.352Z,100917.28
2022-07-25T05:38:40.741Z,100914.22
2022-07-25T05:44:13.757Z,100920.25
2022-07-25T05:49:46.134Z,100908.06
2022-07-25T05:55:18.028Z,100895.03
2022-07-25T06:00:26.741Z,100897.53
2022-07-25T06:05:34.036Z,100891.72
2022-07-25T06:11:06.424Z,100889.66
2022-07-25T06:16:41.228Z,100888.44
2022-07-25T06:22:14.553Z,100887.41
2022-07-25T06:27:26.121Z,100892.16
2022-07-25T06:32:43.128Z,100890.09
2022-07-25T06:37:51.057Z,100884.28
2022-07-25T06:43:04.270Z,100883.22
2022-07-25T06:48:13.228Z,100872.63
2022-07-25T06:53:20.454Z,100859.75
2022-07-25T06:58:33.156Z,100866.34
2022-07-25T07:04:06.519Z,100867.53
2022-07-25T07:09:40.493Z,100867.06
2022-07-25T07:15:17.948Z,100860.00
2022-07-25T07:20:52.070Z,100850.81
2022-07-25T07:26:23.662Z,100843.31
2022-07-25T07:31:55.496Z,100837.47
2022-07-25T07:37:31.637Z,100839.03
2022-07-25T07:43:06.760Z,100819.44
2022-07-25T07:48:13.136Z,100814.59
2022-07-25T07:53:47.341Z,100820.44
2022-07-25T07:59:18.739Z,100819.56
2022-07-25T08:04:50.371Z,100823.34
2022-07-25T08:10:25.472Z,100822.16
2022-07-25T08:16:21.072Z,100815.44
2022-07-25T08:21:33.224Z,100815.78
2022-07-25T08:26:46.183Z,100814.72
2022-07-25T08:31:53.210Z,100801.06
2022-07-25T08:36:59.855Z,100798.38
2022-07-25T08:42:34.842Z,100788.69
2022-07-25T08:47:41.923Z,100782.44
2022-07-25T08:52:50.979Z,100786.22
2022-07-25T08:58:29.079Z,100791.69
2022-07-25T09:03:41.283Z,100781.53
2022-07-25T09:09:12.610Z,100776.63
2022-07-25T09:14:46.014Z,100773.09
2022-07-25T09:20:18.656Z,100779.88
2022-07-25T09:25:30.391Z,100774.13
2022-07-25T09:31:05.523Z,100766.59
2022-07-25T09:36:17.099Z,100771.19
2022-07-25T09:41:24.501Z,100777.97
2022-07-25T09:46:57.002Z,100768.31
2022-07-25T09:52:06.534Z,100758.56
2022-07-25T09:57:14.062Z,100748.31
2022-07-25T10:03:03.473Z,100751.59
2022-07-25T10:08:15.110Z,100740.03
2022-07-25T10:13:46.887Z,100732.72
2022-07-25T10:19:37.755Z,100725.41
2022-07-25T10:25:15.987Z,100723.31
2022-07-25T10:30:48.145Z,100714.81
2022-07-25T10:36:06.997Z,100716.06
2022-07-25T10:41:41.868Z,100710.28
2022-07-25T10:47:15.604Z,100707.91
2022-07-25T10:52:59.370Z,100704.34
2022-07-25T10:58:18.547Z,100690.97
2022-07-25T11:03:52.271Z,100686.47
2022-07-25T11:09:27.767Z,100680.81
2022-07-25T11:15:03.804Z,100679.75
2022-07-25T11:20:35.764Z,100663.88
2022-07-25T11:25:44.113Z,100673.56
2022-07-25T11:30:54.999Z,100671.34
2022-07-25T11:36:02.293Z,100650.13
2022-07-25T11:41:11.737Z,100654.75
2022-07-25T11:47:08.436Z,100647.06
2022-07-25T11:52:39.859Z,100641.06
2022-07-25T11:57:50.432Z,100633.59
2022-07-25T12:03:07.965Z,100627.91
2022-07-25T12:08:17.228Z,100631.22
2022-07-25T12:13:29.049Z,100617.63
2022-07-25T12:19:00.617Z,100609.59
2022-07-25T12:24:32.416Z,100613.22
2022-07-25T12:30:06.345Z,100600.47
2022-07-25T12:35:14.777Z,100593.50
2022-07-25T12:40:21.656Z,100586.63
2022-07-25T12:45:31.250Z,100582.97
2022-07-25T12:51:03.285Z,100571.53
2022-07-25T12:56:35.064Z,100573.31
2022-07-25T13:02:09.856Z,100562.44
2022-07-25T13:07:17.378Z,100560.94
2022-07-25T13:12:25.626Z,100555.63
2022-07-25T13:17:34.604Z,100542.97
2022-07-25T13:23:09.950Z,100533.75
2022-07-25T13:28:41.308Z,100534.13
2022-07-25T13:33:54.348Z,100527.91
2022-07-25T13:39:28.583Z,100512.69
2022-07-25T13:45:00.324Z,100511.06
2022-07-25T13:50:33.961Z,100498.28
2022-07-25T13:56:05.960Z,100497.91
2022-07-25T14:01:37.923Z,100485.97
2022-07-25T14:07:11.009Z,100478.38
2022-07-25T14:12:42.625Z,100481.66
2022-07-25T14:17:53.201Z,100477.56
2022-07-25T14:23:29.986Z,100478.09
2022-07-25T14:29:02.403Z,100467.53
2022-07-25T14:34:38.364Z,100464.78
2022-07-25T14:39:47.823Z,100464.78
2022-07-25T14:44:55.330Z,100453.38
2022-07-25T14:50:02.727Z,100454.50
2022-07-25T14:55:12.268Z,100453.13
2022-07-25T15:01:09.482Z,100437.03
2022-07-25T15:06:41.549Z,100425.56
2022-07-25T15:11:49.970Z,100412.50
2022-07-25T15:17:21.426Z,100413.34
2022-07-25T15:22:53.334Z,100408.16
2022-07-25T15:28:26.943Z,100400.56
2022-07-25T15:33:58.704Z,100392.38
2022-07-25T15:39:30.024Z,100389.91
2022-07-25T15:45:31.467Z,100387.44
2022-07-25T15:50:56.399Z,100386.38
2022-07-25T15:56:28.356Z,100386.91
2022-07-25T16:01:36.825Z,100375.47
2022-07-25T16:07:32.724Z,100376.31
2022-07-25T16:12:39.896Z,100365.38
2022-07-25T16:18:12.917Z,100364.56
2022-07-25T16:24:09.885Z,100360.75
2022-07-25T16:29:20.274Z,100365.94
2022-07-25T16:34:53.909Z,100353.13
2022-07-25T16:40:01.192Z,100343.03
2022-07-25T16:45:13.812Z,100340.28
2022-07-25T16:50:48.025Z,100335.09
2022-07-25T16:55:55.264Z,100329.34
2022-07-25T17:01:07.785Z,100323.09
2022-07-25T17:06:45.013Z,100325.00
2022-07-25T17:12:16.982Z,100319.22
2022-07-25T17:17:48.708Z,100319.44
2022-07-25T17:23:21.859Z,100306.09
2022-07-25T17:28:54.124Z,100307.44
2022-07-25T17:34:01.544Z,100296.78
2022-07-25T17:39:39.328Z,100296.19
2022-07-25T17:44:47.901Z,100291.84
2022-07-25T17:49:55.002Z,100284.75
2022-07-25T17:55:29.017Z,100284.41
2022-07-25T18:01:01.675Z,100271.03
2022-07-25T18:06:09.851Z,100271.50
2022-07-25T18:11:23.159Z,100266.56
2022-07-25T18:16:32.114Z,100258.31
2022-07-25T18:21:45.459Z,100254.69
2022-07-25T18:27:19.412Z,100249.97
2022-07-25T18:32:32.847Z,100242.22
2022-07-25T18:38:04.728Z,100234.25
2022-07-25T18:43:38.153Z,100232.13
2022-07-25T18:48:47.829Z,100240.72
2022-07-25T18:53:55.092Z,100230.56
2022-07-25T18:59:03.535Z,100223.63
2022-07-25T19:04:12.880Z,100222.88
2022-07-25T19:09:27.651Z,100215.41
2022-07-25T19:14:36.601Z,100223.16
2022-07-25T19:20:10.925Z,100223.16
2022-07-25T19:25:42.993Z,100218.91
2022-07-25T19:30:51.559Z,100220.63
2022-07-25T19:36:00.800Z,100213.06
2022-07-25T19:41:09.460Z,100206.66
2022-07-25T19:46:42.731Z,100211.44
2022-07-25T19:52:15.104Z,100218.66
2022-07-25T19:57:46.700Z,100214.44
2022-07-25T20:02:55.503Z,100223.16
2022-07-25T20:08:28.815Z,100213.78
2022-07-25T20:14:02.134Z,100211.66
2022-07-25T20:19:40.664Z,100213.28
2022-07-25T20:25:14.822Z,100227.22
2022-07-25T20:30:22.249Z,100225.59
2022-07-25T20:35:34.069Z,100222.66
2022-07-25T20:40:48.270Z,100223.25
2022-07-25T20:46:22.228Z,100210.06
2022-07-25T20:51:55.420Z,100213.81
2022-07-25T20:57:27.188Z,100219.63
2022-07-25T21:02:34.925Z,100221.50
2022-07-25T21:07:43.572Z,100221.91
2022-07-25T21:12:50.275Z,100225.84
2022-07-25T21:18:25.992Z,100232.09
2022-07-25T21:23:35.152Z,100245.97
2022-07-25T21:29:07.175Z,100249.59
2022-07-25T21:35:05.980Z,100243.06
2022-07-25T21:40:15.163Z,100261.34
2022-07-25T21:45:22.077Z,100253.59
2022-07-25T21:50:43.529Z,100253.13
2022-07-25T21:56:18.158Z,100248.25
2022-07-25T22:01:25.671Z,100229.38
2022-07-25T22:06:32.770Z,100220.53
2022-07-25T22:11:46.118Z,100208.81
2022-07-25T22:16:53.922Z,100210.84
2022-07-25T22:22:03.617Z,100198.50
2022-07-25T22:28:01.056Z,100182.88
2022-07-25T22:33:08.499Z,100182.31
2022-07-25T22:38:40.558Z,100180.19
2022-07-25T22:43:59.653Z,100159.78
2022-07-25T22:49:09.599Z,100153.41
2022-07-25T22:54:19.069Z,100149.81
2022-07-25T22:59:31.181Z,100146.88
2022-07-25T23:05:03.481Z,100128.78
2022-07-25T23:10:35.459Z,100124.56
2022-07-25T23:16:10.542Z,100116.13
2022-07-25T23:21:42.667Z,100120.06
2022-07-25T23:27:14.691Z,100110.44
2022-07-25T23:32:48.066Z,100112.91
2022-07-25T23:38:00.003Z,100108.31
2022-07-25T23:43:07.088Z,100116.53
2022-07-25T23:48:15.441Z,100117.47
2022-07-25T23:53:25.892Z,100121.00
2022-07-25T23:59:21.746Z,100120.00
